sensor_id;sensor_type;location;lat;lon;timestamp;pressure;altitude;pressure_sealevel;temperature;humidity
75053;BME280;63630;50.142;14.076;2022-10-16T00:02:16;96832.75;;;18.80;72.35
75053;BME280;63630;50.142;14.076;2022-10-16T00:04:44;96825.75;;;18.79;71.97
75053;BME280;63630;50.142;14.076;2022-10-16T00:07:09;96831.16;;;18.79;72.34
75053;BME280;63630;50.142;14.076;2022-10-16T00:09:36;96832.28;;;18.78;72.12
75053;BME280;63630;50.142;14.076;2022-10-16T00:12:04;96830.69;;;18.77;71.99
75053;BME280;63630;50.142;14.076;2022-10-16T00:14:37;96830.69;;;18.77;72.02
75053;BME280;63630;50.142;14.076;2022-10-16T00:17:08;96824.81;;;18.75;72.10
75053;BME280;63630;50.142;14.076;2022-10-16T00:19:33;96836.88;;;18.78;71.83
75053;BME280;63630;50.142;14.076;2022-10-16T00:21:58;96833.41;;;18.77;71.63
75053;BME280;63630;50.142;14.076;2022-10-16T00:24:24;96827.53;;;18.75;72.09
75053;BME280;63630;50.142;14.076;2022-10-16T00:26:49;96838.34;;;18.75;71.82
75053;BME280;63630;50.142;14.076;2022-10-16T00:29:15;96847.22;;;18.76;71.64
75053;BME280;63630;50.142;14.076;2022-10-16T00:31:40;96849.44;;;18.74;71.64
75053;BME280;63630;50.142;14.076;2022-10-16T00:34:05;96852.97;;;18.74;71.58
75053;BME280;63630;50.142;14.076;2022-10-16T00:36:31;96852.63;;;18.76;71.79
75053;BME280;63630;50.142;14.076;2022-10-16T00:38:57;96845.31;;;18.76;71.67
75053;BME280;63630;50.142;14.076;2022-10-16T00:41:25;96846.44;;;18.75;71.72
75053;BME280;63630;50.142;14.076;2022-10-16T00:43:57;96847.22;;;18.76;71.47
75053;BME280;63630;50.142;14.076;2022-10-16T00:46:35;96852.63;;;18.76;71.42
75053;BME280;63630;50.142;14.076;2022-10-16T00:49:05;96845.66;;;18.75;71.60
75053;BME280;63630;50.142;14.076;2022-10-16T00:51:33;96855.69;;;18.74;71.56
75053;BME280;63630;50.142;14.076;2022-10-16T00:54:00;96850.28;;;18.74;71.61
75053;BME280;63630;50.142;14.076;2022-10-16T00:56:27;96856.47;;;18.75;71.46
75053;BME280;63630;50.142;14.076;2022-10-16T00:58:54;96839.78;;;18.73;71.61
75053;BME280;63630;50.142;14.076;2022-10-16T01:01:22;96849.78;;;18.72;71.43
75053;BME280;63630;50.142;14.076;2022-10-16T01:03:50;96856.78;;;18.73;71.20
75053;BME280;63630;50.142;14.076;2022-10-16T01:06:24;96847.56;;;18.74;71.51
75053;BME280;63630;50.142;14.076;2022-10-16T01:09:03;96857.56;;;18.74;71.14
75053;BME280;63630;50.142;14.076;2022-10-16T01:11:42;96857.56;;;18.74;71.17
75053;BME280;63630;50.142;14.076;2022-10-16T01:14:59;96859.00;;;18.71;71.44
75053;BME280;63630;50.142;14.076;2022-10-16T01:17:06;96859.47;;;18.73;71.30
75053;BME280;63630;50.142;14.076;2022-10-16T01:19:56;96846.75;;;18.74;71.33
75053;BME280;63630;50.142;14.076;2022-10-16T01:22:36;96851.69;;;18.71;71.34
75053;BME280;63630;50.142;14.076;2022-10-16T01:25:05;96845.50;;;18.71;71.41
75053;BME280;63630;50.142;14.076;2022-10-16T01:27:34;96844.38;;;18.72;71.25
75053;BME280;63630;50.142;14.076;2022-10-16T01:30:13;96842.47;;;18.73;70.78
75053;BME280;63630;50.142;14.076;2022-10-16T01:32:52;96842.47;;;18.73;71.00
75053;BME280;63630;50.142;14.076;2022-10-16T01:37:59;96845.50;;;18.71;71.30
75053;BME280;63630;50.142;14.076;2022-10-16T01:40:27;96853.59;;;18.71;71.06
75053;BME280;63630;50.142;14.076;2022-10-16T01:42:56;96850.88;;;18.71;71.20
75053;BME280;63630;50.142;14.076;2022-10-16T01:45:24;96845.00;;;18.69;71.09
75053;BME280;63630;50.142;14.076;2022-10-16T01:47:50;96846.59;;;18.70;70.90
75053;BME280;63630;50.142;14.076;2022-10-16T01:50:18;96840.88;;;18.71;70.89
75053;BME280;63630;50.142;14.076;2022-10-16T01:52:48;96836.59;;;18.70;71.06
75053;BME280;63630;50.142;14.076;2022-10-16T01:55:18;96837.38;;;18.71;71.14
75053;BME280;63630;50.142;14.076;2022-10-16T01:57:49;96842.00;;;18.70;70.83
75053;BME280;63630;50.142;14.076;2022-10-16T02:00:16;96833.06;;;18.70;71.03
75053;BME280;63630;50.142;14.076;2022-10-16T02:02:45;96833.41;;;18.68;70.96
75053;BME280;63630;50.142;14.076;2022-10-16T02:07:40;96839.59;;;18.69;70.82
75053;BME280;63630;50.142;14.076;2022-10-16T02:10:07;96843.09;;;18.69;71.05
75053;BME280;63630;50.142;14.076;2022-10-16T02:12:35;96841.53;;;18.68;70.93
75053;BME280;63630;50.142;14.076;2022-10-16T02:15:05;96836.91;;;18.69;71.03
75053;BME280;63630;50.142;14.076;2022-10-16T02:17:33;96847.72;;;18.69;71.02
75053;BME280;63630;50.142;14.076;2022-10-16T02:19:59;96844.53;;;18.67;70.75
75053;BME280;63630;50.142;14.076;2022-10-16T02:22:32;96853.91;;;18.69;70.88
75053;BME280;63630;50.142;14.076;2022-10-16T02:30:17;96849.63;;;18.68;70.77
75053;BME280;63630;50.142;14.076;2022-10-16T02:32:46;96852.63;;;18.67;70.65
75053;BME280;63630;50.142;14.076;2022-10-16T02:35:15;96855.34;;;18.67;70.96
75053;BME280;63630;50.142;14.076;2022-10-16T02:37:47;96862.34;;;18.68;70.52
75053;BME280;63630;50.142;14.076;2022-10-16T02:40:14;96858.84;;;18.67;70.84
75053;BME280;63630;50.142;14.076;2022-10-16T02:42:40;96853.47;;;18.67;70.97
75053;BME280;63630;50.142;14.076;2022-10-16T02:45:10;96865.84;;;18.68;70.80
75053;BME280;63630;50.142;14.076;2022-10-16T02:47:38;96860.44;;;18.68;70.90
75053;BME280;63630;50.142;14.076;2022-10-16T02:50:06;96866.97;;;18.67;70.96
75053;BME280;63630;50.142;14.076;2022-10-16T02:52:31;96861.88;;;18.66;70.88
75053;BME280;63630;50.142;14.076;2022-10-16T02:54:57;96856.03;;;18.64;70.78
75053;BME280;63630;50.142;14.076;2022-10-16T02:57:27;96865.38;;;18.66;70.57
75053;BME280;63630;50.142;14.076;2022-10-16T02:59:52;96873.03;;;18.64;70.85
75053;BME280;63630;50.142;14.076;2022-10-16T03:02:18;96881.13;;;18.64;70.61
75053;BME280;63630;50.142;14.076;2022-10-16T03:04:45;96888.91;;;18.66;70.56
75053;BME280;63630;50.142;14.076;2022-10-16T03:07:11;96888.09;;;18.65;70.44
75053;BME280;63630;50.142;14.076;2022-10-16T03:09:36;96889.22;;;18.64;70.60
75053;BME280;63630;50.142;14.076;2022-10-16T03:12:01;96895.44;;;18.65;70.50
75053;BME280;63630;50.142;14.076;2022-10-16T03:14:27;96897.78;;;18.66;70.82
75053;BME280;63630;50.142;14.076;2022-10-16T03:16:54;96902.41;;;18.66;70.53
75053;BME280;63630;50.142;14.076;2022-10-16T03:19:20;96899.72;;;18.66;70.26
75053;BME280;63630;50.142;14.076;2022-10-16T03:21:47;96904.66;;;18.64;70.51
75053;BME280;63630;50.142;14.076;2022-10-16T03:24:15;96914.34;;;18.65;70.85
75053;BME280;63630;50.142;14.076;2022-10-16T03:26:42;96910.84;;;18.64;70.71
75053;BME280;63630;50.142;14.076;2022-10-16T03:29:08;96910.06;;;18.64;70.51
75053;BME280;63630;50.142;14.076;2022-10-16T03:31:33;96902.75;;;18.64;70.35
75053;BME280;63630;50.142;14.076;2022-10-16T03:33:59;96898.13;;;18.65;70.57
75053;BME280;63630;50.142;14.076;2022-10-16T03:36:26;96893.50;;;18.65;70.41
75053;BME280;63630;50.142;14.076;2022-10-16T03:38:52;96889.22;;;18.64;70.39
75053;BME280;63630;50.142;14.076;2022-10-16T03:41:17;96888.09;;;18.65;70.56
75053;BME280;63630;50.142;14.076;2022-10-16T03:43:44;96872.53;;;18.62;70.34
75053;BME280;63630;50.142;14.076;2022-10-16T03:46:10;96881.13;;;18.64;70.41
75053;BME280;63630;50.142;14.076;2022-10-16T03:48:38;96872.88;;;18.61;70.61
75053;BME280;63630;50.142;14.076;2022-10-16T03:51:05;96880.34;;;18.64;70.35
75053;BME280;63630;50.142;14.076;2022-10-16T03:53:33;96880.16;;;18.60;70.25
75053;BME280;63630;50.142;14.076;2022-10-16T03:56:00;96888.44;;;18.64;70.46
75053;BME280;63630;50.142;14.076;2022-10-16T03:58:26;96888.75;;;18.62;70.21
75053;BME280;63630;50.142;14.076;2022-10-16T04:00:51;96896.06;;;18.62;70.65
75053;BME280;63630;50.142;14.076;2022-10-16T04:03:17;96901.13;;;18.63;70.52
75053;BME280;63630;50.142;14.076;2022-10-16T04:05:46;96904.66;;;18.64;70.40
75053;BME280;63630;50.142;14.076;2022-10-16T04:08:14;96904.66;;;18.64;70.62
75053;BME280;63630;50.142;14.076;2022-10-16T04:10:39;96920.53;;;18.65;70.71
75053;BME280;63630;50.142;14.076;2022-10-16T04:13:04;96924.38;;;18.64;70.67
75053;BME280;63630;50.142;14.076;2022-10-16T04:15:30;96916.25;;;18.64;70.57
75053;BME280;63630;50.142;14.076;2022-10-16T04:17:55;96918.47;;;18.62;71.11
75053;BME280;63630;50.142;14.076;2022-10-16T04:20:21;96922.44;;;18.65;70.91
75053;BME280;63630;50.142;14.076;2022-10-16T04:22:49;96929.44;;;18.66;71.23
75053;BME280;63630;50.142;14.076;2022-10-16T04:25:14;96920.69;;;18.69;71.38
75053;BME280;63630;50.142;14.076;2022-10-16T04:27:39;96930.69;;;18.68;71.26
75053;BME280;63630;50.142;14.076;2022-10-16T04:30:05;96919.09;;;18.68;71.29
75053;BME280;63630;50.142;14.076;2022-10-16T04:32:30;96926.56;;;18.71;71.31
75053;BME280;63630;50.142;14.076;2022-10-16T04:34:58;96926.09;;;18.69;71.25
75053;BME280;63630;50.142;14.076;2022-10-16T04:37:26;96933.56;;;18.72;71.27
75053;BME280;63630;50.142;14.076;2022-10-16T04:39:53;96934.34;;;18.73;71.65
75053;BME280;63630;50.142;14.076;2022-10-16T04:42:18;96926.56;;;18.71;71.62
75053;BME280;63630;50.142;14.076;2022-10-16T04:44:46;96933.56;;;18.72;71.41
75053;BME280;63630;50.142;14.076;2022-10-16T04:47:12;96935.44;;;18.71;71.60
75053;BME280;63630;50.142;14.076;2022-10-16T04:49:37;96939.44;;;18.74;71.29
75053;BME280;63630;50.142;14.076;2022-10-16T04:52:03;96938.63;;;18.74;71.50
75053;BME280;63630;50.142;14.076;2022-10-16T04:54:28;96940.06;;;18.71;71.58
75053;BME280;63630;50.142;14.076;2022-10-16T04:56:56;96940.56;;;18.73;71.53
75053;BME280;63630;50.142;14.076;2022-10-16T04:59:25;96932.75;;;18.71;71.32
75053;BME280;63630;50.142;14.076;2022-10-16T05:01:51;96935.94;;;18.74;71.50
75053;BME280;63630;50.142;14.076;2022-10-16T05:04:16;96941.69;;;18.72;71.47
75053;BME280;63630;50.142;14.076;2022-10-16T05:06:44;96940.06;;;18.71;71.63
75053;BME280;63630;50.142;14.076;2022-10-16T05:09:09;96937.06;;;18.73;71.42
75053;BME280;63630;50.142;14.076;2022-10-16T05:11:40;96946.75;;;18.74;71.21
75053;BME280;63630;50.142;14.076;2022-10-16T05:14:05;96954.06;;;18.73;71.09
75053;BME280;63630;50.142;14.076;2022-10-16T05:16:30;96950.56;;;18.73;71.36
75053;BME280;63630;50.142;14.076;2022-10-16T05:18:56;96956.75;;;18.73;71.52
75053;BME280;63630;50.142;14.076;2022-10-16T05:21:24;96964.09;;;18.73;71.17
75053;BME280;63630;50.142;14.076;2022-10-16T05:23:53;96962.97;;;18.74;71.19
75053;BME280;63630;50.142;14.076;2022-10-16T05:26:19;96964.09;;;18.73;71.30
75053;BME280;63630;50.142;14.076;2022-10-16T05:28:44;96962.47;;;18.71;71.27
75053;BME280;63630;50.142;14.076;2022-10-16T05:31:10;96964.09;;;18.73;71.25
75053;BME280;63630;50.142;14.076;2022-10-16T05:33:35;96958.69;;;18.73;71.50
75053;BME280;63630;50.142;14.076;2022-10-16T05:36:10;96962.47;;;18.71;71.23
75053;BME280;63630;50.142;14.076;2022-10-16T05:38:37;96965.19;;;18.71;71.13
75053;BME280;63630;50.142;14.076;2022-10-16T05:41:04;96963.91;;;18.69;71.53
75053;BME280;63630;50.142;14.076;2022-10-16T05:43:30;96963.28;;;18.72;71.00
75053;BME280;63630;50.142;14.076;2022-10-16T05:46:01;96960.91;;;18.70;71.03
75053;BME280;63630;50.142;14.076;2022-10-16T05:48:27;96963.91;;;18.69;71.16
75053;BME280;63630;50.142;14.076;2022-10-16T05:51:02;96970.59;;;18.71;71.24
75053;BME280;63630;50.142;14.076;2022-10-16T05:53:35;96979.34;;;18.68;71.26
75053;BME280;63630;50.142;14.076;2022-10-16T05:56:01;96986.81;;;18.71;71.34
75053;BME280;63630;50.142;14.076;2022-10-16T05:58:32;96985.53;;;18.69;71.06
75053;BME280;63630;50.142;14.076;2022-10-16T06:01:03;96994.91;;;18.71;70.93
75053;BME280;63630;50.142;14.076;2022-10-16T06:03:28;96988.72;;;18.62;71.15
75053;BME280;63630;50.142;14.076;2022-10-16T06:05:56;97013.03;;;18.71;71.17
75053;BME280;63630;50.142;14.076;2022-10-16T06:08:25;97013.81;;;18.71;71.26
75053;BME280;63630;50.142;14.076;2022-10-16T06:11:06;97013.81;;;18.71;70.90
75053;BME280;63630;50.142;14.076;2022-10-16T06:13:32;97019.53;;;18.70;71.09
75053;BME280;63630;50.142;14.076;2022-10-16T06:16:03;97024.63;;;18.71;70.80
75053;BME280;63630;50.142;14.076;2022-10-16T06:18:29;97021.44;;;18.69;70.96
75053;BME280;63630;50.142;14.076;2022-10-16T06:20:55;97010.84;;;18.64;71.29
75053;BME280;63630;50.142;14.076;2022-10-16T06:23:23;97018.28;;;18.67;71.03
75053;BME280;63630;50.142;14.076;2022-10-16T06:25:49;97021.44;;;18.69;70.91
75053;BME280;63630;50.142;14.076;2022-10-16T06:28:14;97018.28;;;18.67;71.09
75053;BME280;63630;50.142;14.076;2022-10-16T06:30:42;97021.78;;;18.68;70.79
75053;BME280;63630;50.142;14.076;2022-10-16T06:33:11;97026.56;;;18.71;70.87
75053;BME280;63630;50.142;14.076;2022-10-16T06:35:36;97037.06;;;18.73;70.81
75053;BME280;63630;50.142;14.076;2022-10-16T06:38:02;97047.88;;;18.73;70.75
75053;BME280;63630;50.142;14.076;2022-10-16T06:40:32;97037.84;;;18.73;70.74
75053;BME280;63630;50.142;14.076;2022-10-16T06:43:00;97034.34;;;18.73;70.57
75053;BME280;63630;50.142;14.076;2022-10-16T06:45:28;97045.31;;;18.76;70.60
75053;BME280;63630;50.142;14.076;2022-10-16T06:47:53;97058.97;;;18.80;70.77
75053;BME280;63630;50.142;14.076;2022-10-16T06:50:18;97051.34;;;18.82;71.24
75053;BME280;63630;50.142;14.076;2022-10-16T06:52:48;97044.81;;;18.83;71.40
75053;BME280;63630;50.142;14.076;2022-10-16T06:55:13;97048.31;;;18.83;71.74
75053;BME280;63630;50.142;14.076;2022-10-16T06:57:39;97042.25;;;18.86;72.21
75053;BME280;63630;50.142;14.076;2022-10-16T07:00:05;97046.22;;;18.89;71.91
75053;BME280;63630;50.142;14.076;2022-10-16T07:02:31;97062.94;;;18.91;71.93
75053;BME280;63630;50.142;14.076;2022-10-16T07:04:59;97057.84;;;18.89;72.04
75053;BME280;63630;50.142;14.076;2022-10-16T07:07:26;97061.50;;;18.93;71.80
75053;BME280;63630;50.142;14.076;2022-10-16T07:09:54;97071.97;;;18.95;71.79
75053;BME280;63630;50.142;14.076;2022-10-16T07:12:20;97072.47;;;18.97;72.02
75053;BME280;63630;50.142;14.076;2022-10-16T07:14:47;97085.97;;;18.97;72.22
75053;BME280;63630;50.142;14.076;2022-10-16T07:17:13;97072.47;;;18.97;71.87
75053;BME280;63630;50.142;14.076;2022-10-16T07:19:38;97084.06;;;18.98;71.90
75053;BME280;63630;50.142;14.076;2022-10-16T07:22:06;97086.13;;;19.01;72.02
75053;BME280;63630;50.142;14.076;2022-10-16T07:24:31;97096.16;;;19.00;71.93
75053;BME280;63630;50.142;14.076;2022-10-16T07:26:59;97098.84;;;19.00;71.64
75053;BME280;63630;50.142;14.076;2022-10-16T07:29:24;97099.66;;;19.01;71.54
75053;BME280;63630;50.142;14.076;2022-10-16T07:31:52;97096.59;;;19.02;71.49
75053;BME280;63630;50.142;14.076;2022-10-16T07:34:23;97091.19;;;19.02;71.71
75053;BME280;63630;50.142;14.076;2022-10-16T07:36:49;97098.22;;;19.03;71.76
75053;BME280;63630;50.142;14.076;2022-10-16T07:39:18;97098.03;;;19.00;71.77
75053;BME280;63630;50.142;14.076;2022-10-16T07:41:43;97102.81;;;19.03;71.54
75053;BME280;63630;50.142;14.076;2022-10-16T07:44:09;97100.44;;;19.01;71.30
75053;BME280;63630;50.142;14.076;2022-10-16T07:46:37;97109.81;;;19.04;71.33
75053;BME280;63630;50.142;14.076;2022-10-16T07:49:05;97092.81;;;19.03;71.40
75053;BME280;63630;50.142;14.076;2022-10-16T07:51:31;97096.59;;;19.02;71.04
75053;BME280;63630;50.142;14.076;2022-10-16T07:53:56;97104.41;;;19.04;71.22
75053;BME280;63630;50.142;14.076;2022-10-16T07:56:24;97115.22;;;19.04;71.00
75053;BME280;63630;50.142;14.076;2022-10-16T07:58:54;97117.94;;;19.04;71.14
75053;BME280;63630;50.142;14.076;2022-10-16T08:01:22;97117.59;;;19.05;71.13
75053;BME280;63630;50.142;14.076;2022-10-16T08:03:49;97126.50;;;19.06;71.21
75053;BME280;63630;50.142;14.076;2022-10-16T08:06:19;97114.88;;;19.05;71.04
75053;BME280;63630;50.142;14.076;2022-10-16T08:08:45;97119.50;;;19.05;71.02
75053;BME280;63630;50.142;14.076;2022-10-16T08:11:10;97108.69;;;18.96;70.88
75053;BME280;63630;50.142;14.076;2022-10-16T08:13:41;97136.53;;;19.05;70.75
75053;BME280;63630;50.142;14.076;2022-10-16T08:16:09;97134.59;;;19.06;71.01
75053;BME280;63630;50.142;14.076;2022-10-16T08:18:38;97139.72;;;19.07;71.01
75053;BME280;63630;50.142;14.076;2022-10-16T08:21:05;97125.69;;;19.05;71.56
75053;BME280;63630;50.142;14.076;2022-10-16T08:23:31;97141.28;;;19.08;71.23
75053;BME280;63630;50.142;14.076;2022-10-16T08:26:03;97135.09;;;19.08;71.78
75053;BME280;63630;50.142;14.076;2022-10-16T08:28:28;97145.13;;;19.07;71.99
75053;BME280;63630;50.142;14.076;2022-10-16T08:30:54;97151.47;;;19.11;71.85
75053;BME280;63630;50.142;14.076;2022-10-16T08:33:21;97154.16;;;19.11;72.25
75053;BME280;63630;50.142;14.076;2022-10-16T08:35:51;97144.94;;;19.12;71.97
75053;BME280;63630;50.142;14.076;2022-10-16T08:38:17;97149.88;;;19.10;72.15
75053;BME280;63630;50.142;14.076;2022-10-16T08:40:45;97152.09;;;19.08;72.49
75053;BME280;63630;50.142;14.076;2022-10-16T08:48:47;97175.03;;;19.02;72.73
75053;BME280;63630;50.142;14.076;2022-10-16T08:51:33;97181.56;;;19.01;72.67
75053;BME280;63630;50.142;14.076;2022-10-16T08:54:27;97171.84;;;19.00;72.79
75053;BME280;63630;50.142;14.076;2022-10-16T08:56:50;97168.66;;;18.98;72.65
75053;BME280;63630;50.142;14.076;2022-10-16T08:59:18;97177.25;;;19.00;72.45
75053;BME280;63630;50.142;14.076;2022-10-16T09:01:46;97169.47;;;18.99;72.66
75053;BME280;63630;50.142;14.076;2022-10-16T09:04:31;97164.53;;;19.01;71.97
75053;BME280;63630;50.142;14.076;2022-10-16T09:22:38;97172.63;;;19.09;71.09
75053;BME280;63630;50.142;14.076;2022-10-16T09:25:13;97183.59;;;19.13;70.96
75053;BME280;63630;50.142;14.076;2022-10-16T09:27:39;97176.59;;;19.12;71.03
75053;BME280;63630;50.142;14.076;2022-10-16T09:30:20;97178.66;;;19.15;70.88
75053;BME280;63630;50.142;14.076;2022-10-16T09:32:50;97172.13;;;19.16;70.91
75053;BME280;63630;50.142;14.076;2022-10-16T09:35:19;97188.34;;;19.16;70.94
75053;BME280;63630;50.142;14.076;2022-10-16T09:37:48;97194.88;;;19.15;70.85
75053;BME280;63630;50.142;14.076;2022-10-16T09:40:35;97200.28;;;19.15;71.09
75053;BME280;63630;50.142;14.076;2022-10-16T09:43:22;97201.09;;;19.15;71.04
75053;BME280;63630;50.142;14.076;2022-10-16T09:46:38;97206.19;;;19.17;70.72
75053;BME280;63630;50.142;14.076;2022-10-16T09:48:49;97196.78;;;19.14;71.31
75053;BME280;63630;50.142;14.076;2022-10-16T09:51:21;97201.56;;;19.17;70.67
75053;BME280;63630;50.142;14.076;2022-10-16T09:53:47;97200.00;;;19.16;71.11
75053;BME280;63630;50.142;14.076;2022-10-16T09:56:27;97194.88;;;19.15;71.36
75053;BME280;63630;50.142;14.076;2022-10-16T09:59:01;97207.28;;;19.16;71.02
75053;BME280;63630;50.142;14.076;2022-10-16T10:01:37;97213.97;;;19.18;71.21
75053;BME280;63630;50.142;14.076;2022-10-16T10:04:03;97203.94;;;19.19;71.20
75053;BME280;63630;50.142;14.076;2022-10-16T10:06:32;97200.44;;;19.18;70.61
75053;BME280;63630;50.142;14.076;2022-10-16T10:09:29;97214.75;;;19.19;70.69
75053;BME280;63630;50.142;14.076;2022-10-16T10:12:03;97207.47;;;19.20;71.03
75053;BME280;63630;50.142;14.076;2022-10-16T10:14:42;97212.88;;;19.20;70.96
75053;BME280;63630;50.142;14.076;2022-10-16T10:25:17;97193.44;;;19.17;70.42
75053;BME280;63630;50.142;14.076;2022-10-16T10:44:13;97203.28;;;19.22;70.93
75053;BME280;63630;50.142;14.076;2022-10-16T10:46:50;97213.81;;;19.24;70.62
75053;BME280;63630;50.142;14.076;2022-10-16T10:54:51;97226.22;;;19.25;70.60
75053;BME280;63630;50.142;14.076;2022-10-16T11:05:21;97212.69;;;19.33;71.31
75053;BME280;63630;50.142;14.076;2022-10-16T11:07:54;97219.84;;;19.29;70.74
75053;BME280;63630;50.142;14.076;2022-10-16T11:10:27;97220.78;;;19.33;71.01
75053;BME280;63630;50.142;14.076;2022-10-16T11:13:19;97219.50;;;19.39;71.14
75053;BME280;63630;50.142;14.076;2022-10-16T11:15:51;97209.34;;;19.36;71.06
75053;BME280;63630;50.142;14.076;2022-10-16T11:18:30;97217.75;;;19.44;70.58
75053;BME280;63630;50.142;14.076;2022-10-16T11:21:05;97216.47;;;19.50;70.92
75053;BME280;63630;50.142;14.076;2022-10-16T11:23:41;97216.47;;;19.50;70.84
75053;BME280;63630;50.142;14.076;2022-10-16T11:26:21;97206.41;;;19.50;70.92
75053;BME280;63630;50.142;14.076;2022-10-16T11:28:50;97211.97;;;19.54;70.92
75053;BME280;63630;50.142;14.076;2022-10-16T11:31:36;97205.13;;;19.56;70.69
75053;BME280;63630;50.142;14.076;2022-10-16T11:34:22;97213.06;;;19.61;70.34
75053;BME280;63630;50.142;14.076;2022-10-16T11:39:29;97213.72;;;19.67;70.05
75053;BME280;63630;50.142;14.076;2022-10-16T11:50:17;97208.53;;;19.92;69.52
75053;BME280;63630;50.142;14.076;2022-10-16T11:52:55;97211.38;;;19.95;68.99
75053;BME280;63630;50.142;14.076;2022-10-16T11:55:41;97200.22;;;19.97;69.56
75053;BME280;63630;50.142;14.076;2022-10-16T12:06:32;97195.53;;;20.06;68.90
75053;BME280;63630;50.142;14.076;2022-10-16T12:09:03;97200.47;;;20.04;68.56
75053;BME280;63630;50.142;14.076;2022-10-16T12:11:33;97199.56;;;20.00;68.02
75053;BME280;63630;50.142;14.076;2022-10-16T12:16:53;97200.41;;;19.92;68.60
75053;BME280;63630;50.142;14.076;2022-10-16T12:19:20;97187.84;;;19.87;68.31
75053;BME280;63630;50.142;14.076;2022-10-16T12:21:46;97200.09;;;19.84;68.83
75053;BME280;63630;50.142;14.076;2022-10-16T12:24:42;97187.56;;;19.80;69.00
75053;BME280;63630;50.142;14.076;2022-10-16T12:27:27;97197.13;;;19.77;68.94
75053;BME280;63630;50.142;14.076;2022-10-16T12:29:56;97191.56;;;19.74;69.06
75053;BME280;63630;50.142;14.076;2022-10-16T12:32:33;97213.06;;;19.70;68.93
75053;BME280;63630;50.142;14.076;2022-10-16T12:35:00;97211.81;;;19.68;68.94
75053;BME280;63630;50.142;14.076;2022-10-16T12:39:56;97209.75;;;19.64;69.19
75053;BME280;63630;50.142;14.076;2022-10-16T12:44:55;97215.75;;;19.61;68.97
75053;BME280;63630;50.142;14.076;2022-10-16T12:47:36;97221.81;;;19.58;69.23
75053;BME280;63630;50.142;14.076;2022-10-16T12:50:02;97224.06;;;19.56;68.96
75053;BME280;63630;50.142;14.076;2022-10-16T12:55:01;97223.13;;;19.52;69.35
75053;BME280;63630;50.142;14.076;2022-10-16T13:00:45;97218.38;;;19.49;69.16
75053;BME280;63630;50.142;14.076;2022-10-16T13:06:19;97229.97;;;19.50;69.02
75053;BME280;63630;50.142;14.076;2022-10-16T13:08:52;97228.06;;;19.50;69.02
75053;BME280;63630;50.142;14.076;2022-10-16T13:19:32;97230.78;;;19.50;69.02
75053;BME280;63630;50.142;14.076;2022-10-16T13:27:54;97232.22;;;19.48;69.63
75053;BME280;63630;50.142;14.076;2022-10-16T13:30:25;97240.31;;;19.48;69.28
75053;BME280;63630;50.142;14.076;2022-10-16T13:35:27;97243.38;;;19.46;69.66
75053;BME280;63630;50.142;14.076;2022-10-16T13:38:14;97247.16;;;19.45;69.43
75053;BME280;63630;50.142;14.076;2022-10-16T13:43:33;97254.84;;;19.43;69.57
75053;BME280;63630;50.142;14.076;2022-10-16T13:46:04;97256.75;;;19.42;69.72
75053;BME280;63630;50.142;14.076;2022-10-16T13:48:35;97255.63;;;19.44;69.74
75053;BME280;63630;50.142;14.076;2022-10-16T13:53:33;97243.88;;;19.39;69.53
75053;BME280;63630;50.142;14.076;2022-10-16T13:56:00;97247.03;;;19.41;69.75
75053;BME280;63630;50.142;14.076;2022-10-16T13:58:26;97258.63;;;19.42;69.76
75053;BME280;63630;50.142;14.076;2022-10-16T14:00:57;97260.56;;;19.41;69.76
75053;BME280;63630;50.142;14.076;2022-10-16T14:03:29;97263.09;;;19.38;69.56
75053;BME280;63630;50.142;14.076;2022-10-16T14:05:58;97274.41;;;19.40;69.68
75053;BME280;63630;50.142;14.076;2022-10-16T14:08:36;97271.72;;;19.40;69.51
75053;BME280;63630;50.142;14.076;2022-10-16T14:11:19;97271.22;;;19.38;69.52
75053;BME280;63630;50.142;14.076;2022-10-16T14:13:48;97276.63;;;19.38;69.67
75053;BME280;63630;50.142;14.076;2022-10-16T14:16:23;97269.31;;;19.38;69.50
75053;BME280;63630;50.142;14.076;2022-10-16T14:19:15;97276.00;;;19.32;69.35
75053;BME280;63630;50.142;14.076;2022-10-16T14:21:46;97274.25;;;19.36;69.33
75053;BME280;63630;50.142;14.076;2022-10-16T14:24:26;97281.25;;;19.37;69.76
75053;BME280;63630;50.142;14.076;2022-10-16T14:26:52;97275.34;;;19.35;69.67
75053;BME280;63630;50.142;14.076;2022-10-16T14:29:21;97280.47;;;19.37;69.53
75053;BME280;63630;50.142;14.076;2022-10-16T14:32:00;97282.38;;;19.36;69.22
75053;BME280;63630;50.142;14.076;2022-10-16T14:37:00;97287.78;;;19.36;69.44
75053;BME280;63630;50.142;14.076;2022-10-16T14:39:29;97284.28;;;19.36;69.32
75053;BME280;63630;50.142;14.076;2022-10-16T14:41:58;97284.59;;;19.34;69.30
75053;BME280;63630;50.142;14.076;2022-10-16T14:44:35;97281.59;;;19.36;69.17
75053;BME280;63630;50.142;14.076;2022-10-16T14:47:15;97288.88;;;19.35;69.31
75053;BME280;63630;50.142;14.076;2022-10-16T14:49:44;97274.13;;;19.33;68.90
75053;BME280;63630;50.142;14.076;2022-10-16T14:52:11;97288.88;;;19.35;69.11
75053;BME280;63630;50.142;14.076;2022-10-16T14:54:39;97289.53;;;19.32;69.15
75053;BME280;63630;50.142;14.076;2022-10-16T14:57:12;97293.50;;;19.35;68.94
75053;BME280;63630;50.142;14.076;2022-10-16T14:59:40;97290.81;;;19.35;68.97
75053;BME280;63630;50.142;14.076;2022-10-16T15:04:53;97289.22;;;19.34;68.96
75053;BME280;63630;50.142;14.076;2022-10-16T15:07:19;97292.72;;;19.34;69.14
75053;BME280;63630;50.142;14.076;2022-10-16T15:09:49;97286.50;;;19.34;68.75
75053;BME280;63630;50.142;14.076;2022-10-16T15:12:15;97285.72;;;19.33;68.98
75053;BME280;63630;50.142;14.076;2022-10-16T15:14:40;97286.81;;;19.32;68.67
75053;BME280;63630;50.142;14.076;2022-10-16T15:17:09;97281.09;;;19.34;68.79